Time;durP1;ratioP1;P1;durP2;ratioP2;P2;SDS_P1;SDS_P2;PMS_P1;PMS_P2;Temp;Humidity;BMP_temperature;BMP_pressure;BME280_temperature;BME280_humidity;BME280_pressure;Samples;Min_cycle;Max_cycle;Signal;HPM_P1;HPM_P2
2022/02/02 00:00:34;;;;;;;1.33;0.90;;;5.60;79.60;;;;;;5002329;28;20033;-72
2022/02/02 00:03:06;;;;;;;1.80;0.80;;;5.60;79.60;;;;;;5006846;28;20037;-72
2022/02/02 00:05:50;;;;;;;5.57;4.05;;;5.60;79.50;;;;;;5010455;28;20447;-71
2022/02/02 00:08:37;;;;;;;1.15;0.47;;;5.50;79.90;;;;;;5007283;28;20045;-71
2022/02/02 00:13:54;;;;;;;1.73;0.88;;;5.70;80.80;;;;;;5004746;28;20077;-72
2022/02/02 00:19:14;;;;;;;1.07;0.70;;;5.80;80.90;;;;;;5012541;28;20656;-71
2022/02/02 00:21:45;;;;;;;3.75;0.52;;;5.80;81.10;;;;;;5013247;28;20292;-71
2022/02/02 00:24:22;;;;;;;1.10;0.30;;;5.70;81.30;;;;;;5013934;28;20034;-71
2022/02/02 00:26:53;;;;;;;1.17;0.40;;;5.80;81.30;;;;;;5013556;28;20041;-72
2022/02/02 00:29:22;;;;;;;0.75;0.22;;;5.70;81.40;;;;;;5010504;28;20034;-71
2022/02/02 00:31:55;;;;;;;1.15;0.45;;;5.70;82.00;;;;;;5013101;28;20496;-72
2022/02/02 00:34:25;;;;;;;1.13;0.40;;;5.70;82.30;;;;;;5013921;28;20021;-71
2022/02/02 00:36:56;;;;;;;0.95;0.30;;;5.70;82.60;;;;;;5013290;28;20045;-72
2022/02/02 00:39:26;;;;;;;1.05;0.30;;;5.60;83.40;;;;;;5012895;28;20384;-72
2022/02/02 00:41:56;;;;;;;0.75;0.35;;;5.60;83.50;;;;;;5013658;28;20030;-72
2022/02/02 00:44:23;;;;;;;2.65;0.55;;;5.60;83.50;;;;;;5012362;28;20033;-72
2022/02/02 00:46:50;;;;;;;0.52;0.20;;;5.70;83.50;;;;;;5012069;28;20123;-72
2022/02/02 00:49:17;;;;;;;0.28;0.17;;;5.60;83.50;;;;;;5012037;28;20044;-71
2022/02/02 00:51:46;;;;;;;1.02;0.35;;;5.60;83.80;;;;;;5013601;28;20037;-72
2022/02/02 00:54:14;;;;;;;1.35;0.40;;;5.60;84.40;;;;;;5011787;28;20049;-72
2022/02/02 00:56:40;;;;;;;0.73;0.40;;;5.50;84.60;;;;;;5012718;28;20512;-71
2022/02/02 00:59:06;;;;;;;0.75;0.20;;;5.40;84.90;;;;;;5012946;28;20121;-71
2022/02/02 01:01:31;;;;;;;1.17;0.38;;;5.40;85.80;;;;;;5012195;28;20037;-71
2022/02/02 01:03:57;;;;;;;0.57;0.20;;;5.50;85.80;;;;;;5011439;28;20038;-71
2022/02/02 01:06:24;;;;;;;0.20;0.20;;;5.40;85.90;;;;;;5011435;28;20034;-72
2022/02/02 01:29:46;;;;;;;0.30;0.20;;;5.30;86.70;;;;;;5012002;28;20050;-71
2022/02/02 01:32:12;;;;;;;1.08;0.40;;;5.40;86.40;;;;;;5009916;28;20449;-72
2022/02/02 01:34:38;;;;;;;1.23;0.50;;;5.50;86.00;;;;;;5012195;28;20056;-71
2022/02/02 01:37:04;;;;;;;1.17;0.40;;;5.30;86.00;;;;;;5011420;28;20114;-72
2022/02/02 01:39:36;;;;;;;0.45;0.20;;;5.30;85.00;;;;;;5013066;28;20092;-71
2022/02/02 01:42:04;;;;;;;0.75;0.30;;;5.20;85.10;;;;;;5012413;28;20038;-71
2022/02/02 01:44:40;;;;;;;1.45;0.43;;;5.30;85.60;;;;;;5012435;28;20391;-72
2022/02/02 01:47:07;;;;;;;1.05;0.50;;;5.30;85.90;;;;;;5011773;28;20112;-72
2022/02/02 01:54:54;;;;;;;0.88;0.28;;;5.30;86.30;;;;;;5012805;28;20044;-71
2022/02/02 01:59:51;;;;;;;1.45;0.40;;;5.20;86.10;;;;;;5011773;28;20369;-71
2022/02/02 02:02:16;;;;;;;0.77;0.47;;;5.20;86.40;;;;;;5009682;28;20120;-71
2022/02/02 02:04:42;;;;;;;0.40;0.20;;;5.30;86.10;;;;;;5011074;28;20033;-71
2022/02/02 02:07:08;;;;;;;1.00;0.45;;;5.20;86.60;;;;;;5010236;28;20111;-71
2022/02/02 02:09:33;;;;;;;1.30;0.40;;;5.20;86.10;;;;;;5010944;28;20026;-72
2022/02/02 02:12:04;;;;;;;0.88;0.40;;;5.20;86.50;;;;;;5009414;28;20034;-71
2022/02/02 02:16:58;;;;;;;0.77;0.50;;;5.30;86.20;;;;;;5010435;28;20038;-72
2022/02/02 02:19:24;;;;;;;1.00;0.30;;;5.20;86.20;;;;;;5011505;28;20080;-72
2022/02/02 02:21:51;;;;;;;0.88;0.38;;;5.10;86.40;;;;;;5009789;28;20484;-71
2022/02/02 02:24:17;;;;;;;1.58;0.50;;;5.10;86.40;;;;;;5004772;28;20506;-72
2022/02/02 02:26:43;;;;;;;1.30;0.50;;;5.10;86.30;;;;;;5008846;28;20030;-72
2022/02/02 02:32:14;;;;;;;0.50;0.20;;;5.10;86.20;;;;;;5012356;28;20045;-71
2022/02/02 02:35:17;;;;;;;3.40;0.35;;;5.20;86.10;;;;;;5011553;28;20030;-73
2022/02/02 02:56:11;;;;;;;1.02;0.30;;;5.10;86.00;;;;;;5011314;28;20408;-72
2022/02/02 02:59:32;;;;;;;1.15;0.50;;;4.70;85.80;;;;;;5005495;28;20026;-72
2022/02/02 03:53:20;;;;;;;0.75;0.43;;;4.70;87.10;;;;;;5010537;28;20468;-73
2022/02/02 04:01:11;;;;;;;1.45;0.50;;;4.80;86.80;;;;;;5012815;28;20035;-71
2022/02/02 04:06:08;;;;;;;1.58;0.47;;;4.70;87.00;;;;;;4999216;28;20045;-71
2022/02/02 04:08:37;;;;;;;0.85;0.50;;;4.60;87.50;;;;;;5005516;28;20511;-71
2022/02/02 04:11:12;;;;;;;0.93;0.40;;;4.50;87.90;;;;;;5004390;28;20057;-71
2022/02/02 04:14:53;;;;;;;;;;;4.60;88.00;;;;;;5007433;28;20056;-71
2022/02/02 04:37:27;;;;;;;1.35;0.55;;;4.40;88.60;;;;;;5006538;28;20399;-71
2022/02/02 04:39:08;;;;;;;1.15;0.60;;;4.60;88.30;;;;;;5008035;28;20044;-70
2022/02/02 04:51:30;;;;;;;0.68;0.30;;;4.70;87.90;;;;;;5009063;28;20466;-71
2022/02/02 04:53:43;;;;;;;1.52;0.60;;;4.90;86.90;;;;;;5002644;28;20111;-71
2022/02/02 04:55:55;;;;;;;0.52;0.30;;;4.80;87.20;;;;;;5006190;28;20038;-71
2022/02/02 04:58:40;;;;;;;1.60;0.57;;;4.80;87.50;;;;;;5007090;28;20041;-71
2022/02/02 05:06:24;;;;;;;0.55;0.30;;;4.80;87.60;;;;;;5005016;28;20784;-70
2022/02/02 05:14:47;;;;;;;1.00;0.35;;;4.60;88.00;;;;;;5002661;28;20026;-70
2022/02/02 05:25:09;;;;;;;1.88;0.70;;;4.70;87.50;;;;;;5002326;28;20564;-71
2022/02/02 05:28:24;;;;;;;1.02;0.40;;;4.80;87.30;;;;;;5003630;28;20411;-71
2022/02/02 05:49:04;;;;;;;1.48;0.60;;;4.50;88.30;;;;;;5004635;28;20376;-71
2022/02/02 05:51:24;;;;;;;1.88;0.60;;;4.50;88.50;;;;;;4999730;28;20622;-72
2022/02/02 05:53:51;;;;;;;1.77;0.80;;;4.50;88.50;;;;;;4995790;28;20038;-71
2022/02/02 05:56:18;;;;;;;3.08;1.05;;;4.50;88.30;;;;;;5004010;28;20399;-71
2022/02/02 05:58:45;;;;;;;2.40;1.08;;;4.50;88.50;;;;;;5003664;28;20042;-71
2022/02/02 06:01:12;;;;;;;2.10;0.75;;;4.40;89.00;;;;;;5004852;28;20030;-72
2022/02/02 06:04:06;;;;;;;2.30;0.80;;;4.40;88.80;;;;;;4999238;28;20392;-70
2022/02/02 06:06:33;;;;;;;2.35;1.13;;;4.50;88.60;;;;;;4998788;28;20496;-70
2022/02/02 06:09:00;;;;;;;1.42;0.45;;;4.60;88.50;;;;;;5001425;28;20680;-70
2022/02/02 06:11:27;;;;;;;1.50;0.50;;;4.60;88.20;;;;;;5001839;28;20046;-70
2022/02/02 06:13:57;;;;;;;1.65;0.60;;;4.70;88.00;;;;;;5003235;28;20041;-71
2022/02/02 06:16:25;;;;;;;1.65;0.47;;;4.60;88.20;;;;;;5000005;28;20034;-71
2022/02/02 06:18:58;;;;;;;1.17;0.50;;;4.50;88.80;;;;;;5003194;28;20110;-70
2022/02/02 06:21:32;;;;;;;0.50;0.40;;;4.50;89.20;;;;;;5003626;28;20169;-70
2022/02/02 06:24:13;;;;;;;1.98;0.73;;;4.60;88.70;;;;;;5003455;28;20528;-70
2022/02/02 06:26:45;;;;;;;1.33;0.70;;;4.50;89.10;;;;;;5002693;28;20053;-70
2022/02/02 06:29:12;;;;;;;1.83;0.55;;;4.40;89.80;;;;;;5002759;28;20435;-70
2022/02/02 06:31:39;;;;;;;2.20;0.70;;;4.50;89.70;;;;;;5003156;28;20041;-70
2022/02/02 06:34:08;;;;;;;2.30;0.73;;;4.40;90.00;;;;;;5006194;28;20045;-72
2022/02/02 06:36:36;;;;;;;1.80;0.90;;;4.30;90.10;;;;;;5004830;28;20044;-70
2022/02/02 06:39:08;;;;;;;1.98;0.98;;;4.20;90.00;;;;;;5001035;28;20483;-72
2022/02/02 06:41:35;;;;;;;2.25;1.10;;;4.20;89.90;;;;;;5001042;28;20377;-72
2022/02/02 06:44:00;;;;;;;2.15;0.90;;;4.20;90.00;;;;;;5003150;28;20088;-73
2022/02/02 06:46:31;;;;;;;2.35;1.00;;;4.30;89.80;;;;;;5004818;28;20045;-71
2022/02/02 06:48:57;;;;;;;2.28;0.90;;;4.30;90.00;;;;;;5005080;28;20029;-69
2022/02/02 06:51:36;;;;;;;3.90;1.02;;;4.20;90.40;;;;;;5007131;28;20412;-69
2022/02/02 06:54:26;;;;;;;3.50;1.13;;;4.20;90.50;;;;;;5003283;28;20050;-71
2022/02/02 06:57:04;;;;;;;5.53;1.15;;;4.00;90.70;;;;;;5005017;28;20044;-71
2022/02/02 07:10:24;;;;;;;3.95;1.42;;;4.10;90.40;;;;;;5004161;28;20041;-71
2022/02/02 07:21:16;;;;;;;2.92;1.13;;;4.20;90.80;;;;;;5002513;28;20066;-71
2022/02/02 07:33:49;;;;;;;3.42;1.40;;;4.60;90.10;;;;;;4999871;28;20061;-72
2022/02/02 07:36:29;;;;;;;2.95;1.20;;;4.60;90.00;;;;;;5004005;28;20030;-71
2022/02/02 07:39:07;;;;;;;1.98;0.98;;;4.60;90.10;;;;;;5002548;28;20120;-72
2022/02/02 07:41:39;;;;;;;3.60;1.00;;;4.60;90.20;;;;;;5002035;28;20084;-72
2022/02/02 07:44:12;;;;;;;13.60;2.38;;;4.70;89.80;;;;;;5003726;28;20468;-71
2022/02/02 07:46:46;;;;;;;2.42;1.10;;;4.80;90.20;;;;;;5003366;28;20025;-71
2022/02/02 07:49:15;;;;;;;3.30;1.10;;;4.80;90.10;;;;;;5003570;28;20399;-71
2022/02/02 07:51:42;;;;;;;3.10;1.30;;;4.80;90.20;;;;;;5003045;28;20097;-72
2022/02/02 07:54:16;;;;;;;3.28;1.30;;;4.80;89.80;;;;;;5003454;28;20073;-73
2022/02/02 07:56:45;;;;;;;4.47;1.52;;;4.90;89.40;;;;;;5002386;28;20065;-71
2022/02/02 08:02:02;;;;;;;7.75;3.50;;;5.10;89.10;;;;;;5001242;28;21025;-71
2022/02/02 08:04:30;;;;;;;4.03;1.52;;;4.90;90.00;;;;;;5001686;28;20029;-71
2022/02/02 08:06:57;;;;;;;4.32;1.38;;;4.90;89.40;;;;;;5002931;28;20037;-71
2022/02/02 08:11:53;;;;;;;6.03;1.92;;;4.90;90.40;;;;;;4999391;28;20045;-72
2022/02/02 08:14:20;;;;;;;7.72;3.00;;;4.90;90.40;;;;;;4987254;28;20026;-71
2022/02/02 08:16:46;;;;;;;28.80;14.52;;;4.90;90.70;;;;;;4988038;28;20026;-72
2022/02/02 08:19:11;;;;;;;9.80;6.18;;;4.80;90.50;;;;;;4987733;28;20049;-71
2022/02/02 08:21:37;;;;;;;7.18;3.47;;;5.00;90.20;;;;;;4998551;28;20076;-71
2022/02/02 08:24:03;;;;;;;5.93;2.95;;;5.10;90.30;;;;;;5003018;28;20061;-71
2022/02/02 08:26:28;;;;;;;10.43;4.57;;;5.00;90.20;;;;;;5002792;28;20057;-71
2022/02/02 08:28:57;;;;;;;7.40;3.33;;;4.80;89.90;;;;;;5003461;28;20117;-71
2022/02/02 08:31:26;;;;;;;7.57;2.85;;;4.60;90.10;;;;;;4999915;28;20046;-71
2022/02/02 08:33:56;;;;;;;7.22;2.50;;;4.60;90.10;;;;;;5001766;28;20041;-71
2022/02/02 08:36:22;;;;;;;4.38;2.63;;;4.60;90.20;;;;;;5001595;28;20037;-71
2022/02/02 08:41:31;;;;;;;14.88;9.15;;;4.90;90.30;;;;;;5006327;28;20038;-71
2022/02/02 08:44:05;;;;;;;8.63;4.10;;;5.00;90.30;;;;;;5004882;28;20034;-72
2022/02/02 08:48:58;;;;;;;6.03;2.72;;;5.00;90.10;;;;;;5006576;28;20041;-71
2022/02/02 08:51:29;;;;;;;5.72;2.67;;;5.20;89.60;;;;;;5000451;28;20488;-72
2022/02/02 08:55:01;;;;;;;6.35;3.13;;;5.20;89.40;;;;;;5003485;28;20159;-72
2022/02/02 09:02:09;;;;;;;5.50;2.25;;;5.40;89.50;;;;;;5001444;28;20147;-72
2022/02/02 09:07:19;;;;;;;3.17;1.55;;;5.70;88.40;;;;;;5001779;28;20057;-72
2022/02/02 09:20:59;;;;;;;7.68;3.92;;;6.00;89.50;;;;;;5001890;28;20100;-72
2022/02/02 09:34:01;;;;;;;11.48;3.13;;;5.70;89.60;;;;;;5002219;28;20041;-73
2022/02/02 09:36:30;;;;;;;7.50;2.95;;;5.60;89.40;;;;;;5003475;28;20064;-72
2022/02/02 09:38:59;;;;;;;8.18;3.13;;;5.70;89.90;;;;;;5004662;28;20052;-72
2022/02/02 09:44:02;;;;;;;4.72;2.35;;;6.00;88.40;;;;;;5004670;28;20041;-72
2022/02/02 09:46:34;;;;;;;7.55;2.05;;;6.10;88.10;;;;;;5003818;28;20118;-72
2022/02/02 09:49:07;;;;;;;7.68;3.10;;;6.00;88.70;;;;;;5004991;28;20021;-72
2022/02/02 09:51:38;;;;;;;4.63;2.47;;;6.00;89.10;;;;;;5005841;28;20088;-72
2022/02/02 10:01:57;;;;;;;2.28;1.00;;;5.80;87.80;;;;;;5004546;28;20065;-73
2022/02/02 10:15:13;;;;;;;7.28;2.30;;;5.90;88.60;;;;;;4992640;28;21318;-74
2022/02/02 10:17:38;;;;;;;6.22;2.58;;;6.10;87.90;;;;;;4990238;28;20518;-72
2022/02/02 10:20:26;;;;;;;6.30;2.33;;;6.20;87.70;;;;;;4989853;28;20041;-73
2022/02/02 10:22:56;;;;;;;6.43;2.55;;;6.20;88.90;;;;;;4992287;28;20400;-73
2022/02/02 10:25:32;;;;;;;8.98;2.33;;;6.10;88.40;;;;;;5004627;28;20685;-71
2022/02/02 10:28:11;;;;;;;4.10;2.25;;;6.30;87.70;;;;;;5002861;28;20396;-72
2022/02/02 10:30:40;;;;;;;6.72;3.10;;;6.40;87.80;;;;;;5005408;28;20065;-72
2022/02/02 10:33:11;;;;;;;8.35;3.58;;;6.30;87.70;;;;;;5003414;28;20370;-72
2022/02/02 10:35:45;;;;;;;6.60;2.78;;;6.20;87.40;;;;;;5005478;28;20164;-71
2022/02/02 10:38:17;;;;;;;;;;;6.30;87.30;;;;;;5006525;28;20041;-72
2022/02/02 10:41:04;;;;;;;6.25;3.03;;;6.30;87.50;;;;;;5007470;28;19909;-72
2022/02/02 10:43:35;;;;;;;7.03;2.53;;;6.50;87.50;;;;;;5006152;28;20097;-72
2022/02/02 10:46:24;;;;;;;6.32;2.38;;;6.70;86.60;;;;;;5008191;28;20174;-71
2022/02/02 10:49:06;;;;;;;6.13;2.55;;;6.70;86.00;;;;;;5005507;28;20049;-72
2022/02/02 10:54:33;;;;;;;4.25;2.00;;;7.00;84.90;;;;;;5006025;28;20041;-71
2022/02/02 10:57:07;;;;;;;3.22;1.58;;;7.30;84.70;;;;;;5007200;28;20088;-72
2022/02/02 11:07:24;;;;;;;5.13;2.65;;;7.70;84.00;;;;;;5006665;28;20052;-72
2022/02/02 11:09:50;;;;;;;7.90;2.55;;;7.90;84.30;;;;;;5006799;28;20132;-71
2022/02/02 11:12:21;;;;;;;6.85;2.67;;;7.80;83.40;;;;;;5007830;28;20026;-71
2022/02/02 11:14:53;;;;;;;5.70;2.03;;;7.90;84.40;;;;;;5004440;28;20030;-71
2022/02/02 11:17:44;;;;;;;12.40;7.78;;;8.20;83.80;;;;;;5004365;28;20053;-72
2022/02/02 11:20:13;;;;;;;23.90;11.98;;;8.30;83.30;;;;;;5006200;28;20061;-72
2022/02/02 11:22:52;;;;;;;6.82;3.85;;;8.70;81.90;;;;;;5006097;28;20117;-71
2022/02/02 11:25:24;;;;;;;2.63;1.30;;;8.90;81.80;;;;;;5007027;28;20176;-72
2022/02/02 11:27:56;;;;;;;2.78;1.13;;;9.20;81.00;;;;;;5004797;28;20061;-72
2022/02/02 11:30:25;;;;;;;2.45;1.02;;;9.50;80.10;;;;;;5003203;28;20042;-72
2022/02/02 11:32:56;;;;;;;2.55;1.00;;;9.50;79.80;;;;;;5003816;28;20140;-72
2022/02/02 11:35:46;;;;;;;3.92;0.98;;;9.40;78.70;;;;;;5005978;28;20500;-72
2022/02/02 11:38:21;;;;;;;2.13;0.88;;;9.40;79.40;;;;;;5003856;28;20053;-71
2022/02/02 11:49:29;;;;;;;2.20;1.17;;;9.80;79.40;;;;;;5007031;28;20137;-72
2022/02/02 11:52:03;;;;;;;2.10;1.02;;;9.90;79.20;;;;;;5006646;28;20038;-72
2022/02/02 11:54:31;;;;;;;2.33;1.02;;;10.00;79.20;;;;;;5002928;28;20029;-70
2022/02/02 11:57:09;;;;;;;2.38;1.00;;;9.80;78.80;;;;;;5005785;28;20037;-70
2022/02/02 11:59:43;;;;;;;4.38;1.50;;;10.00;78.60;;;;;;5005970;28;20034;-71
2022/02/02 12:02:19;;;;;;;;;;;10.00;78.40;;;;;;4996929;28;20043;-73
2022/02/02 12:05:00;;;;;;;3.17;1.33;;;10.20;79.50;;;;;;4998966;28;20033;-71
2022/02/02 12:08:11;;;;;;;4.15;1.58;;;10.10;78.90;;;;;;4993876;28;20037;-71
2022/02/02 12:49:25;;;;;;;3.03;1.00;;;11.10;77.60;;;;;;5005863;28;20115;-69
2022/02/02 12:57:01;;;;;;;2.47;1.15;;;10.80;77.00;;;;;;5006504;28;20602;-69
2022/02/02 13:02:12;;;;;;;2.42;1.10;;;11.10;77.10;;;;;;4999941;28;20575;-70
2022/02/02 13:04:40;;;;;;;2.55;1.15;;;11.30;76.90;;;;;;4993334;28;20026;-69
2022/02/02 13:07:17;;;;;;;3.08;1.17;;;11.30;76.90;;;;;;4999816;28;20034;-69
2022/02/02 13:09:47;;;;;;;1.85;0.80;;;11.30;76.90;;;;;;5000337;28;20628;-69
2022/02/02 13:12:25;;;;;;;9.38;0.95;;;11.40;76.90;;;;;;5007018;28;20030;-68
2022/02/02 13:21:01;;;;;;;2.50;0.90;;;11.20;76.60;;;;;;4993094;28;20551;-69
2022/02/02 13:26:27;;;;;;;1.95;0.88;;;11.60;76.60;;;;;;5004780;28;20140;-69
2022/02/02 13:37:26;;;;;;;3.70;0.90;;;11.60;77.50;;;;;;5003900;28;20033;-69
2022/02/02 14:01:42;;;;;;;;;;;11.40;77.00;;;;;;5005975;28;20045;-69
2022/02/02 14:09:26;;;;;;;1.48;0.82;;;11.40;77.40;;;;;;5004896;28;20979;-69
2022/02/02 14:31:11;;;;;;;2.15;0.57;;;11.10;78.30;;;;;;5005619;28;20076;-69
2022/02/02 14:34:07;;;;;;;5.53;0.98;;;11.10;78.60;;;;;;4993617;28;20152;-69
2022/02/02 14:36:45;;;;;;;2.00;0.65;;;11.10;78.70;;;;;;5000914;28;20104;-69
2022/02/02 14:41:59;;;;;;;0.98;0.40;;;10.90;79.00;;;;;;5005504;28;20412;-69
2022/02/02 14:44:33;;;;;;;2.03;0.50;;;10.90;79.40;;;;;;4997960;28;20170;-71
2022/02/02 14:47:07;;;;;;;5.13;2.00;;;11.00;79.50;;;;;;4995356;28;20069;-71
2022/02/02 14:52:34;;;;;;;2.63;0.75;;;11.00;79.20;;;;;;4988665;28;20093;-70
2022/02/02 15:23:47;;;;;;;2.75;1.17;;;10.60;80.00;;;;;;5002190;28;20097;-69
2022/02/02 15:27:52;;;;;;;1.95;0.68;;;10.40;80.60;;;;;;5000053;28;20042;-71
2022/02/02 15:30:32;;;;;;;3.58;0.77;;;10.30;81.00;;;;;;5003048;28;20037;-69
2022/02/02 15:33:01;;;;;;;3.10;0.60;;;10.40;81.20;;;;;;5002468;28;20033;-70
2022/02/02 15:35:29;;;;;;;3.03;0.65;;;10.40;80.60;;;;;;5002637;28;20053;-69
2022/02/02 15:38:28;;;;;;;1.17;0.47;;;10.30;80.50;;;;;;4999949;28;20363;-70
2022/02/02 15:40:52;;;;;;;1.50;0.50;;;10.40;80.50;;;;;;4995085;28;20662;-69
2022/02/02 16:00:15;;;;;;;5.57;0.57;;;9.90;80.80;;;;;;5003239;28;20037;-71
2022/02/02 16:05:16;;;;;;;4.40;0.45;;;9.90;80.90;;;;;;4972602;28;20034;-69
2022/02/02 16:07:41;;;;;;;1.85;0.57;;;9.90;80.40;;;;;;4987741;28;20061;-71
2022/02/02 16:10:14;;;;;;;1.80;0.30;;;9.70;80.70;;;;;;4987547;28;20045;-70
2022/02/02 16:12:44;;;;;;;1.85;0.22;;;9.70;80.80;;;;;;4991941;28;20106;-70
2022/02/02 16:36:25;;;;;;;1.00;0.28;;;9.10;81.30;;;;;;5006266;28;20129;-69
2022/02/02 16:39:01;;;;;;;1.98;0.30;;;9.30;78.90;;;;;;5005051;28;20467;-69
2022/02/02 16:44:19;;;;;;;0.93;0.38;;;9.90;76.50;;;;;;4998239;28;20547;-69
2022/02/02 16:46:45;;;;;;;0.75;0.40;;;10.00;75.80;;;;;;5006197;28;20037;-69
2022/02/02 16:49:10;;;;;;;2.95;0.40;;;10.00;76.20;;;;;;5006156;28;20045;-69
2022/02/02 16:51:36;;;;;;;2.90;0.20;;;9.80;76.90;;;;;;5006003;28;20694;-69
2022/02/02 16:54:06;;;;;;;1.45;0.73;;;9.80;78.80;;;;;;5006362;28;20037;-68
2022/02/02 17:32:09;;;;;;;0.75;0.30;;;9.30;81.60;;;;;;5001086;28;20380;-69
2022/02/02 17:34:56;;;;;;;3.42;0.60;;;9.30;81.60;;;;;;5002839;28;20030;-68
2022/02/02 17:45:24;;;;;;;2.13;0.63;;;9.30;81.40;;;;;;5005713;28;20132;-68
2022/02/02 17:56:33;;;;;;;1.73;0.70;;;8.50;82.50;;;;;;5004108;28;20118;-69
2022/02/02 18:03:26;;;;;;;3.15;0.60;;;8.00;83.70;;;;;;5004463;28;20103;-68
2022/02/02 18:13:27;;;;;;;1.83;0.65;;;8.00;83.80;;;;;;5003295;28;20053;-68
2022/02/02 18:20:38;;;;;;;3.03;0.40;;;8.20;84.00;;;;;;5003134;28;20052;-70
2022/02/02 18:23:13;;;;;;;0.57;0.30;;;8.40;83.20;;;;;;5001847;28;20025;-70
2022/02/02 18:26:20;;;;;;;1.05;0.40;;;7.90;83.90;;;;;;5005465;28;20073;-70
2022/02/02 18:33:50;;;;;;;0.73;0.22;;;8.20;84.30;;;;;;5001067;28;20086;-71
2022/02/02 18:36:26;;;;;;;2.25;0.30;;;8.20;84.60;;;;;;5001470;28;20353;-70
2022/02/02 18:52:43;;;;;;;1.38;0.73;;;8.80;84.80;;;;;;5002223;28;20042;-70
2022/02/02 19:03:04;;;;;;;1.00;0.43;;;8.70;84.60;;;;;;4998570;28;20120;-74
2022/02/02 19:14:52;;;;;;;0.80;0.40;;;8.60;84.50;;;;;;4999412;28;20440;-73
2022/02/02 19:57:22;;;;;;;2.70;0.80;;;8.90;84.90;;;;;;5007582;28;20044;-73
2022/02/02 20:07:51;;;;;;;2.38;1.23;;;8.80;84.50;;;;;;5004358;28;20042;-72
2022/02/02 20:12:50;;;;;;;7.93;4.38;;;8.10;85.80;;;;;;5003753;28;20038;-73
2022/02/02 20:15:15;;;;;;;1.23;0.40;;;8.40;85.10;;;;;;5003236;28;20030;-72
2022/02/02 20:17:43;;;;;;;1.15;0.40;;;8.50;84.70;;;;;;5004768;28;20030;-73
2022/02/02 20:20:18;;;;;;;2.13;0.40;;;8.10;84.90;;;;;;5004123;28;20029;-73
2022/02/02 20:22:45;;;;;;;0.98;0.30;;;8.00;85.10;;;;;;5004553;28;20559;-73
2022/02/02 20:25:13;;;;;;;0.57;0.20;;;7.80;84.80;;;;;;5001788;28;20046;-73
2022/02/02 20:27:40;;;;;;;0.70;0.20;;;7.50;85.30;;;;;;5004163;28;20038;-72
2022/02/02 20:30:08;;;;;;;1.95;0.45;;;7.60;85.50;;;;;;5003121;28;20066;-73
2022/02/02 20:32:34;;;;;;;2.47;0.40;;;7.40;85.50;;;;;;4996723;28;20650;-72
2022/02/02 20:35:00;;;;;;;0.50;0.35;;;7.30;85.70;;;;;;5003677;28;20079;-72
2022/02/02 20:37:28;;;;;;;0.45;0.10;;;7.20;85.80;;;;;;5006394;28;20030;-72
2022/02/02 20:40:01;;;;;;;1.10;0.47;;;7.10;86.20;;;;;;5006441;28;20038;-73
2022/02/02 21:13:40;;;;;;;1.38;0.40;;;6.90;86.10;;;;;;5005430;28;20050;-72
2022/02/02 21:14:01;;;;;;;0.80;0.30;;;7.00;85.50;;;;;;4995022;28;20034;-72
2022/02/02 21:16:30;;;;;;;0.25;0.10;;;7.00;85.40;;;;;;5006445;28;20041;-72
2022/02/02 21:18:58;;;;;;;1.05;0.30;;;6.70;85.70;;;;;;5007779;28;21280;-73
2022/02/02 21:21:36;;;;;;;1.08;0.40;;;6.40;86.50;;;;;;5005615;28;20022;-72
2022/02/02 21:27:44;;;;;;;0.30;0.20;;;7.20;84.70;;;;;;5005444;28;20593;-72
2022/02/02 21:29:38;;;;;;;1.23;0.38;;;7.10;85.00;;;;;;5001180;28;20041;-72
2022/02/02 21:32:05;;;;;;;0.55;0.20;;;7.20;84.30;;;;;;5005119;28;20053;-71
2022/02/02 21:34:31;;;;;;;0.40;0.20;;;6.70;85.20;;;;;;5004839;28;20436;-72
2022/02/02 21:37:02;;;;;;;0.65;0.30;;;6.60;85.80;;;;;;5005639;28;20053;-72
2022/02/02 21:39:29;;;;;;;0.57;0.22;;;6.80;85.20;;;;;;5007005;28;20026;-72
2022/02/02 21:41:57;;;;;;;1.88;0.22;;;6.90;84.90;;;;;;5005446;28;20026;-72
2022/02/02 21:44:23;;;;;;;1.15;0.38;;;6.60;85.40;;;;;;5005771;28;20038;-72
2022/02/02 21:46:49;;;;;;;0.43;0.20;;;6.60;85.90;;;;;;5004764;28;20029;-72
2022/02/02 21:49:20;;;;;;;0.95;0.35;;;6.90;85.70;;;;;;5006672;28;20117;-72
2022/02/02 21:52:11;;;;;;;0.75;0.20;;;7.00;84.50;;;;;;5005236;28;20069;-72
2022/02/02 21:54:36;;;;;;;0.45;0.20;;;7.00;84.70;;;;;;5005583;28;20866;-72
2022/02/02 21:57:02;;;;;;;0.95;0.30;;;7.00;84.00;;;;;;5005359;28;20033;-73
2022/02/02 21:59:28;;;;;;;0.73;0.38;;;7.00;83.80;;;;;;5005181;28;20061;-73
2022/02/02 22:01:54;;;;;;;2.10;0.20;;;6.90;83.50;;;;;;5005236;28;20455;-73
2022/02/02 22:04:20;;;;;;;1.45;0.22;;;6.80;84.00;;;;;;5005503;28;20029;-73
2022/02/02 22:06:45;;;;;;;0.38;0.30;;;6.50;84.30;;;;;;5005706;28;20026;-73
2022/02/02 22:09:11;;;;;;;0.95;0.38;;;6.70;84.10;;;;;;5005100;28;20037;-72
2022/02/02 22:11:37;;;;;;;0.82;0.50;;;6.70;83.40;;;;;;5004739;28;20601;-72
2022/02/02 22:14:08;;;;;;;1.67;0.30;;;6.60;83.70;;;;;;5005275;28;20034;-71
2022/02/02 22:16:36;;;;;;;0.35;0.08;;;6.70;83.50;;;;;;5005827;28;20087;-72
2022/02/02 22:19:02;;;;;;;0.30;0.10;;;6.80;83.20;;;;;;5004780;28;20758;-72
2022/02/02 22:21:29;;;;;;;0.98;0.40;;;6.60;83.30;;;;;;5005011;28;20049;-74
2022/02/02 22:23:55;;;;;;;0.30;0.10;;;6.90;82.20;;;;;;5005612;28;20421;-74
2022/02/02 22:26:21;;;;;;;1.00;0.52;;;6.80;82.40;;;;;;5004174;28;20053;-73
2022/02/02 22:28:47;;;;;;;0.80;0.20;;;6.80;82.60;;;;;;5004492;28;20507;-73
2022/02/02 22:31:13;;;;;;;0.82;0.20;;;7.00;82.20;;;;;;5002158;28;20038;-73
2022/02/02 22:33:38;;;;;;;0.20;0.10;;;6.90;82.00;;;;;;5004899;28;20048;-74
2022/02/02 22:36:04;;;;;;;0.30;0.20;;;6.80;82.40;;;;;;5003822;28;20030;-73
2022/02/02 22:38:31;;;;;;;0.47;0.10;;;7.00;81.80;;;;;;5005573;28;20468;-74
2022/02/02 22:40:58;;;;;;;0.90;0.20;;;6.90;81.90;;;;;;5004152;28;20040;-74
2022/02/02 22:43:27;;;;;;;0.85;0.38;;;7.40;80.50;;;;;;5004769;28;20040;-74
2022/02/02 22:45:53;;;;;;;0.20;0.05;;;7.50;79.90;;;;;;5005402;28;20034;-74
2022/02/02 22:48:22;;;;;;;1.83;0.75;;;7.50;79.90;;;;;;5004794;28;20037;-74
2022/02/02 22:50:48;;;;;;;0.25;0.10;;;7.40;79.90;;;;;;5002827;28;20065;-73
2022/02/02 22:53:17;;;;;;;0.55;0.10;;;7.30;80.30;;;;;;5002493;28;20141;-74
2022/02/02 22:55:43;;;;;;;0.05;0.05;;;7.20;80.30;;;;;;5008898;28;20021;-73
2022/02/02 22:58:08;;;;;;;0.63;0.43;;;8.00;78.60;;;;;;5006226;28;20034;-73
2022/02/02 23:00:37;;;;;;;2.03;0.17;;;8.10;77.70;;;;;;5005064;28;20022;-74
2022/02/02 23:03:10;;;;;;;0.52;0.20;;;8.00;77.80;;;;;;4998446;28;20929;-74
2022/02/02 23:05:40;;;;;;;0.22;0.10;;;7.70;78.30;;;;;;5001897;28;20441;-73
2022/02/02 23:08:08;;;;;;;2.22;0.30;;;7.50;79.00;;;;;;5002163;28;20049;-73
2022/02/02 23:10:35;;;;;;;0.65;0.22;;;7.90;77.90;;;;;;5003990;28;20045;-74
2022/02/02 23:13:01;;;;;;;0.80;0.32;;;7.80;77.90;;;;;;5006611;28;20041;-73
2022/02/02 23:15:39;;;;;;;0.63;0.30;;;7.90;77.70;;;;;;5007241;28;20042;-73
2022/02/02 23:18:21;;;;;;;0.57;0.40;;;7.90;77.70;;;;;;5008262;28;20034;-73
2022/02/02 23:20:52;;;;;;;0.73;0.20;;;8.20;77.50;;;;;;5007106;28;20665;-73
2022/02/02 23:23:22;;;;;;;0.45;0.17;;;7.80;77.90;;;;;;5007237;28;20050;-73
2022/02/02 23:25:49;;;;;;;4.55;2.03;;;7.60;78.10;;;;;;5007428;28;20404;-73
2022/02/02 23:28:22;;;;;;;0.68;0.20;;;8.10;77.40;;;;;;5007204;28;20084;-74
2022/02/02 23:30:47;;;;;;;2.80;1.52;;;7.90;77.30;;;;;;5006035;28;20049;-73
2022/02/02 23:33:13;;;;;;;0.28;0.20;;;8.10;77.00;;;;;;5006502;28;20026;-73
2022/02/02 23:35:41;;;;;;;1.23;0.40;;;7.70;77.70;;;;;;5007975;28;20061;-74
2022/02/02 23:38:07;;;;;;;0.00;0.00;;;7.50;78.00;;;;;;5007227;28;20037;-73
2022/02/02 23:40:58;;;;;;;0.45;0.15;;;7.70;77.60;;;;;;5004562;28;20087;-73
2022/02/02 23:43:24;;;;;;;0.63;0.22;;;7.80;77.20;;;;;;5006287;28;20518;-73
2022/02/02 23:45:55;;;;;;;1.23;0.28;;;8.40;75.90;;;;;;5007750;28;20072;-73
2022/02/02 23:48:27;;;;;;;1.65;0.50;;;8.70;75.00;;;;;;5005930;28;20104;-74
2022/02/02 23:50:57;;;;;;;1.65;0.52;;;7.90;76.50;;;;;;5006736;28;20049;-73
2022/02/02 23:53:25;;;;;;;2.10;0.30;;;7.80;76.80;;;;;;5005734;28;20057;-74
2022/02/02 23:56:02;;;;;;;0.65;0.20;;;7.60;77.30;;;;;;5005910;28;20048;-73
2022/02/02 23:58:39;;;;;;;2.25;0.68;;;8.00;76.20;;;;;;5006938;28;20096;-73
